createdAt,value
2023-04-15T00:01:37.298Z,8.63
2023-04-15T00:04:05.123Z,8.73
2023-04-15T00:06:31.968Z,9.63
2023-04-15T00:08:59.237Z,8.77
2023-04-15T00:11:26.341Z,10.43
2023-04-15T00:13:53.391Z,8.90
2023-04-15T00:16:20.457Z,8.93
2023-04-15T00:18:47.539Z,9.50
2023-04-15T00:21:14.383Z,9.13
2023-04-15T00:23:41.659Z,9.83
2023-04-15T00:26:08.712Z,9.90
2023-04-15T00:28:35.746Z,10.70
2023-04-15T00:31:03.566Z,9.97
2023-04-15T00:33:30.612Z,10.70
2023-04-15T00:35:57.638Z,10.27
2023-04-15T00:38:24.630Z,11.13
2023-04-15T00:40:51.812Z,10.63
2023-04-15T00:43:18.978Z,10.70
2023-04-15T00:45:47.157Z,11.17
2023-04-15T00:48:14.405Z,10.37
2023-04-15T00:50:41.199Z,11.70
2023-04-15T00:53:08.401Z,10.93
2023-04-15T00:55:36.224Z,11.07
2023-04-15T00:58:03.353Z,11.83
2023-04-15T01:00:31.234Z,11.10
2023-04-15T01:02:59.174Z,11.23
2023-04-15T01:05:27.099Z,10.97
2023-04-15T01:07:55.323Z,11.80
2023-04-15T01:10:22.186Z,11.53
2023-04-15T01:12:49.453Z,11.13
2023-04-15T01:15:16.355Z,11.87
2023-04-15T01:17:43.502Z,11.00
2023-04-15T01:20:10.484Z,11.60
2023-04-15T01:22:39.477Z,10.83
2023-04-15T01:25:17.598Z,10.63
2023-04-15T01:27:45.354Z,11.07
2023-04-15T01:30:12.226Z,10.77
2023-04-15T01:32:39.253Z,11.90
2023-04-15T01:35:06.440Z,11.57
2023-04-15T01:37:33.951Z,11.20
2023-04-15T01:40:00.743Z,12.70
2023-04-15T01:42:28.344Z,11.10
2023-04-15T01:44:55.144Z,12.80
2023-04-15T01:47:22.499Z,11.80
2023-04-15T01:49:49.386Z,10.90
2023-04-15T01:52:16.466Z,11.67
2023-04-15T01:54:43.349Z,10.97
2023-04-15T01:57:12.383Z,11.50
2023-04-15T01:59:39.155Z,10.43
2023-04-15T02:02:06.180Z,12.10
2023-04-15T02:04:34.220Z,11.37
2023-04-15T02:07:01.701Z,10.57
2023-04-15T02:09:28.818Z,11.73
2023-04-15T02:11:56.225Z,12.07
2023-04-15T02:14:24.222Z,11.13
2023-04-15T02:16:51.542Z,11.20
2023-04-15T02:19:18.462Z,12.07
2023-04-15T02:21:45.569Z,10.80
2023-04-15T02:24:12.426Z,11.40
2023-04-15T02:26:41.596Z,10.27
2023-04-15T02:29:08.589Z,10.32
2023-04-15T02:31:40.395Z,10.87
2023-04-15T02:34:08.168Z,11.47
2023-04-15T02:36:35.281Z,11.60
2023-04-15T02:39:02.408Z,10.57
2023-04-15T02:41:30.058Z,12.07
2023-04-15T02:43:57.663Z,10.73
2023-04-15T02:46:24.934Z,10.83
2023-04-15T02:48:53.372Z,10.13
2023-04-15T02:51:22.878Z,10.40
2023-04-15T02:53:50.554Z,10.80
2023-04-15T02:56:19.375Z,11.20
2023-04-15T02:58:46.528Z,10.23
2023-04-15T03:01:13.791Z,10.63
2023-04-15T03:03:41.627Z,10.07
2023-04-15T03:06:09.131Z,11.00
2023-04-15T03:08:36.547Z,10.97
2023-04-15T03:11:04.544Z,10.60
2023-04-15T03:13:32.321Z,10.73
2023-04-15T03:16:03.510Z,10.95
2023-04-15T03:18:32.009Z,11.90
2023-04-15T03:21:02.873Z,10.40
2023-04-15T03:23:32.409Z,10.20
2023-04-15T03:26:02.486Z,11.20
2023-04-15T03:28:31.106Z,9.70
2023-04-15T03:30:59.739Z,10.87
2023-04-15T03:33:26.512Z,10.20
2023-04-15T03:35:53.580Z,10.35
2023-04-15T03:38:20.635Z,10.27
2023-04-15T03:40:47.771Z,10.40
2023-04-15T03:43:14.563Z,10.17
2023-04-15T03:45:41.616Z,9.73
2023-04-15T03:48:17.363Z,10.30
2023-04-15T03:50:45.275Z,10.53
2023-04-15T03:53:12.191Z,10.27
2023-04-15T03:55:39.220Z,9.80
2023-04-15T03:58:06.057Z,10.30
2023-04-15T04:00:33.217Z,9.93
2023-04-15T04:03:00.097Z,10.10
2023-04-15T04:05:27.351Z,9.70
2023-04-15T04:07:54.065Z,10.27
2023-04-15T04:10:21.159Z,10.30
2023-04-15T04:12:47.930Z,9.48
2023-04-15T04:15:15.039Z,9.90
2023-04-15T04:17:42.314Z,9.53
2023-04-15T04:20:09.768Z,9.27
2023-04-15T04:22:40.532Z,9.33
2023-04-15T04:25:10.096Z,9.00
2023-04-15T04:27:37.035Z,8.87
2023-04-15T04:30:05.452Z,9.80
2023-04-15T04:32:32.412Z,9.07
2023-04-15T04:34:59.412Z,10.03
2023-04-15T04:37:26.592Z,9.83
2023-04-15T04:39:53.780Z,9.98
2023-04-15T04:42:20.478Z,9.23
2023-04-15T04:44:47.762Z,8.73
2023-04-15T04:47:14.465Z,8.80
2023-04-15T04:49:41.555Z,8.70
2023-04-15T04:52:08.398Z,9.13
2023-04-15T04:54:35.854Z,9.23
2023-04-15T04:57:03.044Z,9.73
2023-04-15T04:59:30.054Z,10.07
2023-04-15T05:01:57.118Z,8.82
2023-04-15T05:04:24.387Z,9.27
2023-04-15T05:06:51.783Z,10.73
2023-04-15T05:09:19.130Z,8.97
2023-04-15T05:11:46.068Z,9.32
2023-04-15T05:14:13.110Z,9.32
2023-04-15T05:16:40.077Z,10.10
2023-04-15T05:19:07.891Z,9.43
2023-04-15T05:21:34.697Z,9.57
2023-04-15T05:24:01.844Z,10.60
2023-04-15T05:26:28.998Z,10.32
2023-04-15T05:28:56.084Z,9.73
2023-04-15T05:31:22.840Z,9.40
2023-04-15T05:33:49.890Z,10.82
2023-04-15T05:36:16.617Z,10.45
2023-04-15T05:38:43.615Z,9.52
2023-04-15T05:41:10.384Z,10.93
2023-04-15T05:43:37.409Z,12.02
2023-04-15T05:46:04.294Z,10.45
2023-04-15T05:48:31.371Z,10.80
2023-04-15T05:50:58.458Z,11.82
2023-04-15T05:53:25.533Z,10.37
2023-04-15T05:55:52.405Z,11.95
2023-04-15T05:58:19.520Z,12.60
2023-04-15T06:00:46.443Z,12.27
2023-04-15T06:03:13.650Z,13.00
2023-04-15T06:05:40.779Z,13.65
2023-04-15T06:08:08.375Z,14.23
2023-04-15T06:10:36.775Z,13.93
2023-04-15T06:13:04.343Z,14.10
2023-04-15T06:15:31.744Z,15.00
2023-04-15T06:17:59.354Z,14.23
2023-04-15T06:20:26.234Z,15.35
2023-04-15T06:22:53.445Z,14.60
2023-04-15T06:25:20.350Z,15.70
2023-04-15T06:27:48.355Z,15.10
2023-04-15T06:30:15.214Z,15.50
2023-04-15T06:32:42.291Z,16.47
2023-04-15T06:35:09.559Z,16.30
2023-04-15T06:37:36.738Z,15.83
2023-04-15T06:40:05.195Z,16.70
2023-04-15T06:42:32.720Z,17.93
2023-04-15T06:44:59.494Z,17.37
2023-04-15T06:47:26.740Z,17.07
2023-04-15T06:49:53.474Z,16.67
2023-04-15T06:52:20.570Z,16.67
2023-04-15T06:54:47.357Z,16.33
2023-04-15T06:57:14.389Z,15.67
2023-04-15T06:59:41.155Z,15.27
2023-04-15T07:02:12.428Z,16.17
2023-04-15T07:04:40.277Z,16.50
2023-04-15T07:07:08.196Z,16.20
2023-04-15T07:09:34.963Z,15.27
2023-04-15T07:12:02.016Z,15.07
2023-04-15T07:14:29.496Z,15.37
2023-04-15T07:16:56.573Z,14.50
2023-04-15T07:19:23.524Z,14.93
2023-04-15T07:21:50.554Z,15.40
2023-04-15T07:24:18.990Z,16.27
2023-04-15T07:26:46.463Z,16.03
2023-04-15T07:29:13.265Z,16.63
2023-04-15T07:31:40.732Z,15.83
2023-04-15T07:34:07.760Z,17.23
2023-04-15T07:36:35.311Z,17.50
2023-04-15T07:39:03.687Z,16.63
2023-04-15T07:41:31.600Z,15.33
2023-04-15T07:43:58.455Z,15.60
2023-04-15T07:46:27.337Z,15.07
2023-04-15T07:48:54.363Z,15.30
2023-04-15T07:51:21.881Z,16.13
2023-04-15T07:53:50.379Z,15.67
2023-04-15T07:56:17.403Z,13.40
2023-04-15T07:58:44.070Z,14.97
2023-04-15T08:01:11.660Z,13.80
2023-04-15T08:03:39.530Z,14.70
2023-04-15T08:06:06.680Z,14.40
2023-04-15T08:08:33.420Z,13.97
2023-04-15T08:11:00.685Z,13.93
2023-04-15T08:13:27.953Z,14.57
2023-04-15T08:16:21.248Z,14.52
2023-04-15T08:18:49.603Z,14.73
2023-04-15T08:21:18.796Z,14.43
2023-04-15T08:23:47.488Z,13.57
2023-04-15T08:26:15.057Z,14.00
2023-04-15T08:28:42.899Z,13.53
2023-04-15T08:31:10.174Z,14.93
2023-04-15T08:33:37.011Z,14.87
2023-04-15T08:36:04.660Z,15.00
2023-04-15T08:38:31.821Z,14.63
2023-04-15T08:41:03.669Z,14.07
2023-04-15T08:43:35.260Z,14.50
2023-04-15T08:46:02.469Z,13.95
2023-04-15T08:48:32.553Z,13.20
2023-04-15T08:51:00.347Z,13.88
2023-04-15T08:53:29.729Z,13.93
2023-04-15T08:55:58.617Z,13.95
2023-04-15T08:58:26.158Z,13.90
2023-04-15T09:00:53.301Z,14.48
2023-04-15T09:03:21.856Z,14.07
2023-04-15T09:05:51.457Z,15.13
2023-04-15T09:08:20.087Z,15.57
2023-04-15T09:10:47.197Z,14.70
2023-04-15T09:13:14.104Z,13.27
2023-04-15T09:15:41.555Z,13.77
2023-04-15T09:18:08.342Z,14.45
2023-04-15T09:20:42.645Z,15.18
2023-04-15T09:23:17.596Z,16.23
2023-04-15T09:25:45.394Z,16.90
2023-04-15T09:28:12.285Z,15.80
2023-04-15T09:30:39.373Z,14.20
2023-04-15T09:33:08.442Z,15.32
2023-04-15T09:35:36.783Z,14.23
2023-04-15T09:38:09.822Z,13.07
2023-04-15T09:40:39.519Z,19.02
2023-04-15T09:43:07.909Z,13.57
2023-04-15T09:45:36.462Z,23.83
2023-04-15T09:48:17.491Z,14.43
2023-04-15T09:50:45.137Z,13.23
2023-04-15T09:53:16.540Z,16.98
2023-04-15T09:55:51.233Z,15.25
2023-04-15T09:58:26.710Z,14.27
2023-04-15T10:00:56.505Z,13.60
2023-04-15T10:03:28.992Z,13.25
2023-04-15T10:05:57.561Z,14.55
2023-04-15T10:08:27.920Z,13.50
2023-04-15T10:10:55.493Z,16.83
2023-04-15T10:13:24.873Z,15.20
2023-04-15T10:16:07.171Z,14.75
2023-04-15T10:18:42.871Z,13.10
2023-04-15T10:21:10.258Z,15.03
2023-04-15T10:23:38.364Z,13.35
2023-04-15T10:26:06.177Z,14.70
2023-04-15T10:28:33.040Z,13.80
2023-04-15T10:31:01.548Z,14.30
2023-04-15T10:33:29.215Z,13.20
2023-04-15T10:35:56.916Z,12.90
2023-04-15T10:38:36.004Z,12.47
2023-04-15T10:41:27.942Z,12.53
2023-04-15T10:43:57.844Z,12.07
2023-04-15T10:46:41.541Z,11.13
2023-04-15T10:49:13.155Z,11.23
2023-04-15T10:51:42.384Z,12.98
2023-04-15T10:54:14.991Z,12.37
2023-04-15T10:56:45.611Z,12.00
2023-04-15T10:59:12.467Z,10.37
2023-04-15T11:01:57.518Z,10.90
2023-04-15T11:04:57.537Z,12.63
2023-04-15T11:07:48.519Z,12.10
2023-04-15T11:10:18.323Z,10.23
2023-04-15T11:12:46.013Z,11.32
2023-04-15T11:15:43.138Z,10.63
2023-04-15T11:18:17.925Z,10.23
2023-04-15T11:20:47.261Z,10.70
2023-04-15T11:23:38.866Z,12.05
2023-04-15T11:26:09.410Z,12.13
2023-04-15T11:28:38.789Z,12.07
2023-04-15T11:31:12.326Z,10.03
2023-04-15T11:33:56.468Z,10.47
2023-04-15T11:36:28.001Z,10.33
2023-04-15T11:38:57.564Z,10.43
2023-04-15T11:41:24.541Z,12.63
2023-04-15T11:43:52.476Z,9.60
2023-04-15T11:46:19.664Z,8.90
2023-04-15T11:48:47.497Z,9.10
2023-04-15T11:51:14.528Z,10.07
2023-04-15T11:53:49.724Z,10.50
2023-04-15T11:56:22.162Z,12.27
2023-04-15T11:58:52.804Z,12.27
2023-04-15T12:01:19.775Z,10.03
2023-04-15T12:03:48.967Z,10.98
2023-04-15T12:06:19.014Z,11.87
2023-04-15T12:08:55.213Z,10.97
2023-04-15T12:11:21.959Z,11.07
2023-04-15T12:13:51.301Z,11.70
2023-04-15T12:16:19.398Z,11.20
2023-04-15T12:18:48.304Z,11.73
2023-04-15T12:21:15.475Z,12.60
2023-04-15T12:23:50.675Z,11.43
2023-04-15T12:26:19.136Z,15.00
2023-04-15T12:28:46.805Z,13.23
2023-04-15T12:31:14.612Z,11.63
2023-04-15T12:33:41.858Z,13.27
2023-04-15T12:36:09.463Z,12.50
2023-04-15T12:38:36.588Z,12.50
2023-04-15T12:41:03.383Z,11.70
2023-04-15T12:43:30.600Z,12.70
2023-04-15T12:45:57.449Z,11.52
2023-04-15T12:48:24.615Z,12.70
2023-04-15T12:50:51.392Z,12.15
2023-04-15T12:53:18.475Z,11.47
2023-04-15T12:55:45.365Z,12.07
2023-04-15T12:58:12.474Z,11.82
2023-04-15T13:00:39.336Z,13.20
2023-04-15T13:03:07.339Z,13.03
2023-04-15T13:05:34.397Z,12.43
2023-04-15T13:08:01.544Z,15.90
2023-04-15T13:10:29.288Z,17.60
2023-04-15T13:12:56.780Z,22.45
2023-04-15T13:15:23.975Z,32.17
2023-04-15T13:17:51.509Z,28.37
2023-04-15T13:20:18.626Z,20.65
2023-04-15T13:22:46.234Z,23.15
2023-04-15T13:25:12.949Z,12.33
2023-04-15T13:27:39.940Z,15.82
2023-04-15T13:30:07.693Z,13.93
2023-04-15T13:32:34.772Z,11.35
2023-04-15T13:35:01.749Z,10.23
2023-04-15T13:37:30.520Z,10.23
2023-04-15T13:39:58.335Z,9.90
2023-04-15T13:42:25.566Z,10.18
2023-04-15T13:44:52.270Z,10.90
2023-04-15T13:47:19.702Z,10.40
2023-04-15T13:49:46.509Z,9.83
2023-04-15T13:52:13.718Z,8.75
2023-04-15T13:54:40.490Z,8.23
2023-04-15T13:57:07.599Z,11.07
2023-04-15T13:59:37.561Z,11.80
2023-04-15T14:02:04.874Z,16.57
2023-04-15T14:04:32.299Z,14.02
2023-04-15T14:06:59.402Z,11.82
2023-04-15T14:09:28.082Z,11.35
2023-04-15T14:11:55.163Z,11.80
2023-04-15T14:14:21.993Z,11.60
2023-04-15T14:16:49.226Z,10.27
2023-04-15T14:19:16.188Z,9.15
2023-04-15T14:21:43.227Z,10.33
2023-04-15T14:24:10.614Z,8.27
2023-04-15T14:26:37.615Z,8.73
2023-04-15T14:29:04.574Z,9.40
2023-04-15T14:31:31.713Z,8.93
2023-04-15T14:33:58.459Z,9.45
2023-04-15T14:36:26.004Z,9.02
2023-04-15T14:38:52.872Z,9.30
2023-04-15T14:41:20.046Z,9.63
2023-04-15T14:43:46.806Z,9.40
2023-04-15T14:46:14.543Z,8.30
2023-04-15T14:48:42.460Z,8.65
2023-04-15T14:51:09.716Z,8.68
2023-04-15T14:53:36.430Z,8.20
2023-04-15T14:56:03.693Z,8.23
2023-04-15T14:58:30.422Z,8.02
2023-04-15T15:00:57.484Z,8.23
2023-04-15T15:03:24.375Z,9.35
2023-04-15T15:05:51.838Z,8.63
2023-04-15T15:08:18.700Z,11.48
2023-04-15T15:10:48.920Z,10.05
2023-04-15T15:13:17.364Z,8.90
2023-04-15T15:15:44.625Z,8.88
2023-04-15T15:18:11.617Z,8.93
2023-04-15T15:20:38.744Z,8.57
2023-04-15T15:23:05.456Z,8.23
2023-04-15T15:25:32.545Z,7.97
2023-04-15T15:27:59.568Z,8.13
2023-04-15T15:30:26.606Z,8.27
2023-04-15T15:32:53.473Z,7.57
2023-04-15T15:35:22.257Z,8.17
2023-04-15T15:37:49.046Z,8.30
2023-04-15T15:40:16.145Z,8.13
2023-04-15T15:42:43.065Z,7.80
2023-04-15T15:45:10.463Z,7.90
2023-04-15T15:47:37.365Z,8.57
2023-04-15T15:50:06.132Z,8.32
2023-04-15T15:52:33.136Z,8.90
2023-04-15T15:55:00.350Z,8.63
2023-04-15T15:57:27.055Z,9.47
2023-04-15T16:00:04.788Z,9.70
2023-04-15T16:03:04.505Z,9.57
2023-04-15T16:05:24.426Z,10.15
2023-04-15T16:07:51.167Z,10.60
2023-04-15T16:10:18.227Z,9.60
2023-04-15T16:12:45.095Z,9.00
2023-04-15T16:15:12.629Z,9.73
2023-04-15T16:17:39.430Z,8.65
2023-04-15T16:20:07.116Z,8.90
2023-04-15T16:22:35.062Z,11.65
2023-04-15T16:25:02.486Z,11.00
2023-04-15T16:27:29.401Z,10.50
2023-04-15T16:29:56.479Z,9.33
2023-04-15T16:32:23.316Z,8.93
2023-04-15T16:34:50.560Z,9.15
2023-04-15T16:37:17.265Z,9.70
2023-04-15T16:39:44.347Z,8.03
2023-04-15T16:42:11.222Z,9.37
2023-04-15T16:44:38.773Z,8.63
2023-04-15T16:47:05.697Z,8.87
2023-04-15T16:49:34.865Z,8.97
2023-04-15T16:52:02.503Z,8.75
2023-04-15T16:54:29.786Z,8.53
2023-04-15T16:56:58.603Z,8.30
2023-04-15T16:59:25.965Z,8.33
2023-04-15T17:01:54.232Z,8.73
2023-04-15T17:04:21.509Z,8.37
2023-04-15T17:06:48.527Z,8.60
2023-04-15T17:09:15.525Z,9.70
2023-04-15T17:11:44.494Z,9.20
2023-04-15T17:14:11.864Z,9.57
2023-04-15T17:16:38.635Z,9.93
2023-04-15T17:19:06.417Z,9.10
2023-04-15T17:21:33.237Z,8.87
2023-04-15T17:24:00.475Z,9.43
2023-04-15T17:26:27.393Z,10.40
2023-04-15T17:28:54.405Z,9.80
2023-04-15T17:31:21.282Z,11.13
2023-04-15T17:34:00.494Z,9.43
2023-04-15T17:36:34.728Z,9.30
2023-04-15T17:39:01.759Z,9.80
2023-04-15T17:41:28.613Z,9.10
2023-04-15T17:43:55.716Z,9.40
2023-04-15T17:46:22.713Z,9.80
2023-04-15T17:48:49.925Z,9.50
2023-04-15T17:51:17.075Z,10.43
2023-04-15T17:53:44.094Z,9.40
2023-04-15T17:56:11.031Z,10.13
2023-04-15T17:58:39.276Z,10.47
2023-04-15T18:01:06.645Z,10.48
2023-04-15T18:03:33.749Z,10.23
2023-04-15T18:06:01.362Z,10.87
2023-04-15T18:08:28.979Z,9.50
2023-04-15T18:10:56.412Z,10.73
2023-04-15T18:13:23.601Z,12.03
2023-04-15T18:15:51.427Z,10.33
2023-04-15T18:18:18.478Z,10.70
2023-04-15T18:20:45.449Z,10.00
2023-04-15T18:23:14.351Z,9.57
2023-04-15T18:25:43.462Z,10.10
2023-04-15T18:28:10.694Z,10.80
2023-04-15T18:30:37.606Z,10.27
2023-04-15T18:33:04.877Z,9.43
2023-04-15T18:35:31.817Z,8.93
2023-04-15T18:37:59.121Z,8.90
2023-04-15T18:40:26.121Z,9.50
2023-04-15T18:42:53.288Z,8.80
2023-04-15T18:45:20.582Z,9.47
2023-04-15T18:47:48.335Z,10.27
2023-04-15T18:50:15.068Z,10.83
2023-04-15T18:52:42.245Z,10.47
2023-04-15T18:55:08.978Z,11.23
2023-04-15T18:57:36.268Z,11.40
2023-04-15T19:00:04.559Z,8.43
2023-04-15T19:02:31.710Z,9.47
2023-04-15T19:04:58.637Z,8.87
2023-04-15T19:07:25.806Z,7.93
2023-04-15T19:09:53.339Z,9.90
2023-04-15T19:12:20.337Z,10.93
2023-04-15T19:14:47.127Z,10.53
2023-04-15T19:17:14.309Z,10.40
2023-04-15T19:19:41.154Z,10.40
2023-04-15T19:22:08.702Z,9.37
2023-04-15T19:24:36.532Z,9.43
2023-04-15T19:27:03.688Z,9.13
2023-04-15T19:29:30.535Z,9.47
2023-04-15T19:31:57.604Z,8.80
2023-04-15T19:34:25.052Z,9.13
2023-04-15T19:36:52.108Z,9.47
2023-04-15T19:39:19.689Z,9.27
2023-04-15T19:41:47.229Z,9.57
2023-04-15T19:44:15.138Z,9.47
2023-04-15T19:46:44.700Z,9.18
2023-04-15T19:49:11.606Z,8.47
2023-04-15T19:51:38.556Z,7.90
2023-04-15T19:54:05.441Z,8.53
2023-04-15T19:56:34.292Z,8.07
2023-04-15T19:59:01.993Z,7.33
2023-04-15T20:01:29.261Z,7.00
2023-04-15T20:03:56.249Z,6.57
2023-04-15T20:06:23.544Z,6.70
2023-04-15T20:08:50.391Z,6.87
2023-04-15T20:11:17.480Z,6.77
2023-04-15T20:13:44.332Z,8.43
2023-04-15T20:16:12.339Z,8.07
2023-04-15T20:18:39.141Z,6.43
2023-04-15T20:21:06.332Z,6.23
2023-04-15T20:23:35.148Z,6.63
2023-04-15T20:26:02.154Z,6.23
2023-04-15T20:28:28.882Z,6.53
2023-04-15T20:30:56.012Z,7.33
2023-04-15T20:33:22.866Z,6.17
2023-04-15T20:35:50.002Z,13.03
2023-04-15T20:38:16.999Z,6.20
2023-04-15T20:40:44.057Z,6.80
2023-04-15T20:43:10.848Z,6.83
2023-04-15T20:45:38.994Z,9.00
2023-04-15T20:48:06.389Z,10.40
2023-04-15T20:50:33.461Z,10.70
2023-04-15T20:53:00.435Z,10.30
2023-04-15T20:55:29.593Z,8.73
2023-04-15T20:57:58.298Z,7.70
2023-04-15T21:00:25.364Z,8.77
2023-04-15T21:02:52.279Z,8.03
2023-04-15T21:05:19.408Z,7.93
2023-04-15T21:07:46.324Z,8.70
2023-04-15T21:10:13.342Z,8.23
2023-04-15T21:12:41.126Z,9.27
2023-04-15T21:15:09.107Z,9.47
2023-04-15T21:17:35.870Z,10.00
2023-04-15T21:20:03.411Z,8.70
2023-04-15T21:22:30.236Z,7.83
2023-04-15T21:24:57.439Z,8.73
2023-04-15T21:27:25.655Z,7.60
2023-04-15T21:29:52.739Z,8.10
2023-04-15T21:32:19.500Z,7.63
2023-04-15T21:34:46.533Z,8.40
2023-04-15T21:37:13.232Z,8.43
2023-04-15T21:39:40.241Z,8.57
2023-04-15T21:42:07.163Z,9.20
2023-04-15T21:44:34.158Z,8.73
2023-04-15T21:47:00.920Z,8.03
2023-04-15T21:49:27.914Z,6.60
2023-04-15T21:51:54.626Z,7.40
2023-04-15T21:54:21.737Z,8.17
2023-04-15T21:56:49.826Z,7.73
2023-04-15T21:59:16.838Z,8.17
2023-04-15T22:01:43.570Z,8.37
2023-04-15T22:04:10.990Z,6.53
2023-04-15T22:06:38.165Z,6.33
2023-04-15T22:09:05.210Z,5.97
2023-04-15T22:11:32.418Z,5.83
2023-04-15T22:13:59.749Z,6.33
2023-04-15T22:16:26.968Z,5.83
2023-04-15T22:18:54.808Z,5.90
2023-04-15T22:21:21.894Z,6.30
2023-04-15T22:23:49.420Z,6.20
2023-04-15T22:26:16.192Z,6.00
2023-04-15T22:28:43.264Z,6.23
2023-04-15T22:31:10.134Z,6.23
2023-04-15T22:33:37.430Z,6.00
2023-04-15T22:36:04.163Z,6.03
2023-04-15T22:38:31.435Z,5.97
2023-04-15T22:40:58.512Z,5.80
2023-04-15T22:43:26.069Z,7.00
2023-04-15T22:45:54.799Z,6.40
2023-04-15T22:48:22.589Z,6.20
2023-04-15T22:50:49.717Z,6.67
2023-04-15T22:53:17.488Z,6.80
2023-04-15T22:55:46.649Z,7.30
2023-04-15T22:58:14.241Z,7.23
2023-04-15T23:00:41.167Z,6.90
2023-04-15T23:03:08.432Z,6.93
2023-04-15T23:05:35.462Z,6.87
2023-04-15T23:08:02.947Z,7.53
2023-04-15T23:10:29.707Z,7.63
2023-04-15T23:12:56.690Z,8.17
2023-04-15T23:15:23.558Z,8.00
2023-04-15T23:17:50.799Z,6.57
2023-04-15T23:20:17.629Z,7.30
2023-04-15T23:22:45.389Z,6.67
2023-04-15T23:25:12.150Z,6.97
2023-04-15T23:27:39.221Z,6.80
2023-04-15T23:30:06.955Z,7.07
2023-04-15T23:32:34.174Z,7.00
2023-04-15T23:35:01.016Z,7.00
2023-04-15T23:37:30.332Z,7.73
2023-04-15T23:39:57.142Z,7.57
2023-04-15T23:42:24.702Z,7.83
2023-04-15T23:44:51.505Z,7.97
2023-04-15T23:47:18.625Z,7.73
2023-04-15T23:49:45.420Z,7.40
2023-04-15T23:52:12.429Z,7.50
2023-04-15T23:54:39.809Z,7.20
2023-04-15T23:57:06.790Z,7.60
2023-04-15T23:59:33.734Z,7.40
